Portada
METAR-TAF:

METAR-TAF

Aeroports :

Tamanrasset, Algèria

latitud: 22-49N, longitud: 005-28E, altitud: 1377 m

Observació

L'informe es va fer fa 49 minuts, a les 18:30 UTC
Vent 6 kt del Nord/Nord-Oest, variant entre Nord-Oest i Nord
Temperatura 33°C
Pressió 1020 hPa
Visibilitat 10 km o més
Escasses núvols a una alçada de 4600 ft

METAR: DAAT 141830Z 34006KT 310V010 9999 FEW046 33/// Q1020

Hora: 20:19 (19:19 UTC)

Pronòstic

L'informe es va fer fa 2 hores i 19 minuts, a les 17:00 UTC
Pronòstic vàlid del 14 a les 18 UTC al 15 a les 18 UTC
Vent 10 kt del Oest/Nord-Oest
Visibilitat 10 km o més
Escasses núvols a una alçada de 4600 ft
Probabilitat 40% :
Temporalment
l' 14 a les 18 UTC al 14 a les 22 UTC
Escasses núvols a una alçada de 4000 ft, Cumulus congestus.
Evolucionant progressivament
l' 14 a les 20 UTC al 14 a les 23 UTC
Vent 10 kt del Nord-Est

TAF: DAAT 141700Z 1418/1518 30010KT 9999 FEW046 PROB40 TEMPO 1418/1422 FEW040TCU BECMG 1420/1423 04010KT

Observacions i pronòstics meteorològics de més de 4000 aeroports (METAR i TAF).

Les estacions disponibles són els punts grocs i vermells al mapa.

Posi el ratolí al punt desitjat per veure el nom de l'estació.

Feu clic per veure les observacions i els pronòstics meteorològics.

Per canviar el mapa: feu clic els botons verds amb una creu de color negre per apropar; al botó verd amb un guió per allunyar la imatge; o en les fletxes verdes per a mapes adjacents.


METAR-TAF: